sensor_id;sensor_type;location;lat;lon;timestamp;P1;durP1;ratioP1;P2;durP2;ratioP2
11642;SDS011;5877;50.930;6.918;2022-10-16T00:01:23;1.37;;;1.13;;
11642;SDS011;5877;50.930;6.918;2022-10-16T00:03:54;2.57;;;1.20;;
11642;SDS011;5877;50.930;6.918;2022-10-16T00:06:22;1.93;;;1.40;;
11642;SDS011;5877;50.930;6.918;2022-10-16T00:08:49;1.73;;;1.20;;
11642;SDS011;5877;50.930;6.918;2022-10-16T00:11:18;3.70;;;1.13;;
11642;SDS011;5877;50.930;6.918;2022-10-16T00:13:47;1.20;;;1.10;;
11642;SDS011;5877;50.930;6.918;2022-10-16T00:16:15;1.93;;;1.17;;
11642;SDS011;5877;50.930;6.918;2022-10-16T00:18:42;1.70;;;1.10;;
11642;SDS011;5877;50.930;6.918;2022-10-16T00:21:11;1.70;;;1.30;;
11642;SDS011;5877;50.930;6.918;2022-10-16T00:23:40;3.20;;;1.23;;
11642;SDS011;5877;50.930;6.918;2022-10-16T00:26:08;1.97;;;1.30;;
11642;SDS011;5877;50.930;6.918;2022-10-16T00:28:38;3.00;;;1.40;;
11642;SDS011;5877;50.930;6.918;2022-10-16T00:31:06;2.97;;;1.23;;
11642;SDS011;5877;50.930;6.918;2022-10-16T00:33:39;1.30;;;1.10;;
11642;SDS011;5877;50.930;6.918;2022-10-16T00:36:07;1.87;;;1.20;;
11642;SDS011;5877;50.930;6.918;2022-10-16T00:38:36;1.83;;;1.30;;
11642;SDS011;5877;50.930;6.918;2022-10-16T00:41:04;2.63;;;1.17;;
11642;SDS011;5877;50.930;6.918;2022-10-16T00:43:51;1.50;;;1.30;;
11642;SDS011;5877;50.930;6.918;2022-10-16T00:46:21;1.23;;;1.10;;
11642;SDS011;5877;50.930;6.918;2022-10-16T00:48:52;2.20;;;1.40;;
11642;SDS011;5877;50.930;6.918;2022-10-16T00:51:22;3.90;;;1.33;;
11642;SDS011;5877;50.930;6.918;2022-10-16T00:53:54;1.20;;;1.10;;
11642;SDS011;5877;50.930;6.918;2022-10-16T00:56:21;2.10;;;1.10;;
11642;SDS011;5877;50.930;6.918;2022-10-16T00:58:48;1.20;;;1.10;;
11642;SDS011;5877;50.930;6.918;2022-10-16T01:01:14;2.57;;;1.20;;
11642;SDS011;5877;50.930;6.918;2022-10-16T01:03:41;2.83;;;1.10;;
11642;SDS011;5877;50.930;6.918;2022-10-16T01:09:17;2.50;;;0.90;;
11642;SDS011;5877;50.930;6.918;2022-10-16T01:11:54;2.40;;;1.20;;
11642;SDS011;5877;50.930;6.918;2022-10-16T01:17:22;1.87;;;1.30;;
11642;SDS011;5877;50.930;6.918;2022-10-16T01:20:04;3.23;;;1.10;;
11642;SDS011;5877;50.930;6.918;2022-10-16T01:22:44;1.07;;;0.80;;
11642;SDS011;5877;50.930;6.918;2022-10-16T01:25:47;2.93;;;1.30;;
11642;SDS011;5877;50.930;6.918;2022-10-16T01:28:32;1.33;;;0.97;;
11642;SDS011;5877;50.930;6.918;2022-10-16T01:31:03;2.33;;;0.90;;
11642;SDS011;5877;50.930;6.918;2022-10-16T01:33:34;2.30;;;1.20;;
11642;SDS011;5877;50.930;6.918;2022-10-16T01:36:10;3.77;;;1.47;;
11642;SDS011;5877;50.930;6.918;2022-10-16T01:38:41;2.80;;;1.10;;
11642;SDS011;5877;50.930;6.918;2022-10-16T01:41:12;2.30;;;1.20;;
11642;SDS011;5877;50.930;6.918;2022-10-16T01:43:57;1.40;;;1.30;;
11642;SDS011;5877;50.930;6.918;2022-10-16T01:46:32;2.03;;;1.10;;
11642;SDS011;5877;50.930;6.918;2022-10-16T01:49:02;3.03;;;1.20;;
11642;SDS011;5877;50.930;6.918;2022-10-16T01:51:30;1.30;;;1.10;;
11642;SDS011;5877;50.930;6.918;2022-10-16T01:54:00;2.30;;;1.00;;
11642;SDS011;5877;50.930;6.918;2022-10-16T01:56:28;2.60;;;1.20;;
11642;SDS011;5877;50.930;6.918;2022-10-16T01:58:57;1.57;;;1.00;;
11642;SDS011;5877;50.930;6.918;2022-10-16T02:01:28;2.23;;;0.90;;
11642;SDS011;5877;50.930;6.918;2022-10-16T02:03:58;2.40;;;0.93;;
11642;SDS011;5877;50.930;6.918;2022-10-16T02:06:28;1.60;;;0.93;;
11642;SDS011;5877;50.930;6.918;2022-10-16T02:08:55;1.10;;;0.97;;
11642;SDS011;5877;50.930;6.918;2022-10-16T02:11:22;1.10;;;1.00;;
11642;SDS011;5877;50.930;6.918;2022-10-16T02:13:51;1.40;;;0.87;;
11642;SDS011;5877;50.930;6.918;2022-10-16T02:16:26;1.63;;;0.97;;
11642;SDS011;5877;50.930;6.918;2022-10-16T02:18:59;2.20;;;1.07;;
11642;SDS011;5877;50.930;6.918;2022-10-16T02:21:32;2.53;;;1.20;;
11642;SDS011;5877;50.930;6.918;2022-10-16T02:26:48;5.50;;;1.20;;
11642;SDS011;5877;50.930;6.918;2022-10-16T02:29:20;2.97;;;1.10;;
11642;SDS011;5877;50.930;6.918;2022-10-16T02:31:52;1.50;;;1.30;;
11642;SDS011;5877;50.930;6.918;2022-10-16T02:34:24;1.87;;;1.10;;
11642;SDS011;5877;50.930;6.918;2022-10-16T02:36:52;1.37;;;1.13;;
11642;SDS011;5877;50.930;6.918;2022-10-16T02:39:21;1.20;;;1.10;;
11642;SDS011;5877;50.930;6.918;2022-10-16T02:41:48;2.03;;;1.00;;
11642;SDS011;5877;50.930;6.918;2022-10-16T02:44:15;0.73;;;0.70;;
11642;SDS011;5877;50.930;6.918;2022-10-16T02:46:41;1.43;;;1.00;;
11642;SDS011;5877;50.930;6.918;2022-10-16T02:49:08;1.80;;;0.73;;
11642;SDS011;5877;50.930;6.918;2022-10-16T02:51:34;0.90;;;0.90;;
11642;SDS011;5877;50.930;6.918;2022-10-16T02:54:01;1.73;;;1.07;;
11642;SDS011;5877;50.930;6.918;2022-10-16T02:56:28;0.90;;;0.90;;
11642;SDS011;5877;50.930;6.918;2022-10-16T02:58:56;2.90;;;1.10;;
11642;SDS011;5877;50.930;6.918;2022-10-16T03:01:26;3.40;;;1.00;;
11642;SDS011;5877;50.930;6.918;2022-10-16T03:03:52;2.47;;;1.10;;
11642;SDS011;5877;50.930;6.918;2022-10-16T03:06:19;2.20;;;1.07;;
11642;SDS011;5877;50.930;6.918;2022-10-16T03:08:46;1.13;;;1.03;;
11642;SDS011;5877;50.930;6.918;2022-10-16T03:11:12;2.30;;;1.10;;
11642;SDS011;5877;50.930;6.918;2022-10-16T03:13:39;0.93;;;0.83;;
11642;SDS011;5877;50.930;6.918;2022-10-16T03:16:06;2.10;;;1.20;;
11642;SDS011;5877;50.930;6.918;2022-10-16T03:18:32;1.37;;;1.20;;
11642;SDS011;5877;50.930;6.918;2022-10-16T03:20:59;2.80;;;1.40;;
11642;SDS011;5877;50.930;6.918;2022-10-16T03:23:26;2.70;;;1.57;;
11642;SDS011;5877;50.930;6.918;2022-10-16T03:25:52;1.80;;;1.30;;
11642;SDS011;5877;50.930;6.918;2022-10-16T03:28:20;3.50;;;1.30;;
11642;SDS011;5877;50.930;6.918;2022-10-16T03:30:46;1.53;;;1.27;;
11642;SDS011;5877;50.930;6.918;2022-10-16T03:33:13;1.70;;;1.20;;
11642;SDS011;5877;50.930;6.918;2022-10-16T03:35:40;2.00;;;0.97;;
11642;SDS011;5877;50.930;6.918;2022-10-16T03:38:07;2.53;;;0.90;;
11642;SDS011;5877;50.930;6.918;2022-10-16T03:40:33;2.27;;;1.00;;
11642;SDS011;5877;50.930;6.918;2022-10-16T03:43:00;3.20;;;0.90;;
11642;SDS011;5877;50.930;6.918;2022-10-16T03:45:27;1.00;;;0.90;;
11642;SDS011;5877;50.930;6.918;2022-10-16T03:47:54;3.53;;;0.83;;
11642;SDS011;5877;50.930;6.918;2022-10-16T03:50:20;1.00;;;0.80;;
11642;SDS011;5877;50.930;6.918;2022-10-16T03:52:47;1.30;;;0.80;;
11642;SDS011;5877;50.930;6.918;2022-10-16T03:55:14;1.70;;;0.90;;
11642;SDS011;5877;50.930;6.918;2022-10-16T03:57:41;1.93;;;0.97;;
11642;SDS011;5877;50.930;6.918;2022-10-16T04:00:07;1.70;;;0.97;;
11642;SDS011;5877;50.930;6.918;2022-10-16T04:02:38;2.33;;;0.80;;
11642;SDS011;5877;50.930;6.918;2022-10-16T04:05:05;2.93;;;0.83;;
11642;SDS011;5877;50.930;6.918;2022-10-16T04:07:32;1.80;;;0.80;;
11642;SDS011;5877;50.930;6.918;2022-10-16T04:09:58;3.00;;;0.80;;
11642;SDS011;5877;50.930;6.918;2022-10-16T04:12:25;1.83;;;0.90;;
11642;SDS011;5877;50.930;6.918;2022-10-16T04:14:53;1.67;;;0.80;;
11642;SDS011;5877;50.930;6.918;2022-10-16T04:17:19;1.23;;;0.80;;
11642;SDS011;5877;50.930;6.918;2022-10-16T04:19:46;1.40;;;0.90;;
11642;SDS011;5877;50.930;6.918;2022-10-16T04:22:12;1.20;;;0.80;;
11642;SDS011;5877;50.930;6.918;2022-10-16T04:24:39;1.53;;;0.90;;
11642;SDS011;5877;50.930;6.918;2022-10-16T04:27:06;3.27;;;1.27;;
11642;SDS011;5877;50.930;6.918;2022-10-16T04:29:32;3.03;;;0.90;;
11642;SDS011;5877;50.930;6.918;2022-10-16T04:31:59;0.87;;;0.80;;
11642;SDS011;5877;50.930;6.918;2022-10-16T04:34:26;1.63;;;0.60;;
11642;SDS011;5877;50.930;6.918;2022-10-16T04:36:52;0.97;;;0.90;;
11642;SDS011;5877;50.930;6.918;2022-10-16T04:39:19;1.70;;;0.80;;
11642;SDS011;5877;50.930;6.918;2022-10-16T04:41:45;0.83;;;0.80;;
11642;SDS011;5877;50.930;6.918;2022-10-16T04:44:12;0.73;;;0.73;;
11642;SDS011;5877;50.930;6.918;2022-10-16T04:46:39;0.83;;;0.70;;
11642;SDS011;5877;50.930;6.918;2022-10-16T04:49:05;1.80;;;0.80;;
11642;SDS011;5877;50.930;6.918;2022-10-16T04:51:32;1.00;;;0.83;;
11642;SDS011;5877;50.930;6.918;2022-10-16T04:53:59;1.70;;;0.90;;
11642;SDS011;5877;50.930;6.918;2022-10-16T04:56:26;0.90;;;0.70;;
11642;SDS011;5877;50.930;6.918;2022-10-16T04:58:52;1.00;;;0.90;;
11642;SDS011;5877;50.930;6.918;2022-10-16T05:01:19;1.70;;;1.00;;
11642;SDS011;5877;50.930;6.918;2022-10-16T05:03:46;1.13;;;0.87;;
11642;SDS011;5877;50.930;6.918;2022-10-16T05:06:12;1.57;;;1.00;;
11642;SDS011;5877;50.930;6.918;2022-10-16T05:08:39;1.53;;;0.90;;
11642;SDS011;5877;50.930;6.918;2022-10-16T05:11:05;1.10;;;0.70;;
11642;SDS011;5877;50.930;6.918;2022-10-16T05:13:32;1.77;;;0.90;;
11642;SDS011;5877;50.930;6.918;2022-10-16T05:15:59;1.13;;;0.70;;
11642;SDS011;5877;50.930;6.918;2022-10-16T05:18:25;1.97;;;0.80;;
11642;SDS011;5877;50.930;6.918;2022-10-16T05:20:52;1.00;;;0.80;;
11642;SDS011;5877;50.930;6.918;2022-10-16T05:23:19;1.10;;;0.87;;
11642;SDS011;5877;50.930;6.918;2022-10-16T05:25:51;2.30;;;0.80;;
11642;SDS011;5877;50.930;6.918;2022-10-16T05:28:24;1.10;;;0.70;;
11642;SDS011;5877;50.930;6.918;2022-10-16T05:30:51;2.60;;;0.80;;
11642;SDS011;5877;50.930;6.918;2022-10-16T05:33:23;1.37;;;0.80;;
11642;SDS011;5877;50.930;6.918;2022-10-16T05:35:51;1.60;;;0.70;;
11642;SDS011;5877;50.930;6.918;2022-10-16T05:38:18;0.77;;;0.73;;
11642;SDS011;5877;50.930;6.918;2022-10-16T05:40:50;1.60;;;0.80;;
11642;SDS011;5877;50.930;6.918;2022-10-16T05:43:19;2.37;;;1.00;;
11642;SDS011;5877;50.930;6.918;2022-10-16T05:46:05;1.70;;;1.00;;
11642;SDS011;5877;50.930;6.918;2022-10-16T05:48:32;1.50;;;0.77;;
11642;SDS011;5877;50.930;6.918;2022-10-16T05:50:59;1.00;;;0.90;;
11642;SDS011;5877;50.930;6.918;2022-10-16T05:53:29;3.00;;;0.80;;
11642;SDS011;5877;50.930;6.918;2022-10-16T05:55:56;2.70;;;1.10;;
11642;SDS011;5877;50.930;6.918;2022-10-16T05:58:24;0.80;;;0.80;;
11642;SDS011;5877;50.930;6.918;2022-10-16T06:00:52;2.10;;;0.90;;
11642;SDS011;5877;50.930;6.918;2022-10-16T06:03:22;1.87;;;1.07;;
11642;SDS011;5877;50.930;6.918;2022-10-16T06:05:49;2.57;;;1.13;;
11642;SDS011;5877;50.930;6.918;2022-10-16T06:08:17;1.60;;;1.10;;
11642;SDS011;5877;50.930;6.918;2022-10-16T06:10:45;1.33;;;0.90;;
11642;SDS011;5877;50.930;6.918;2022-10-16T06:13:13;1.00;;;0.90;;
11642;SDS011;5877;50.930;6.918;2022-10-16T06:15:41;3.27;;;1.10;;
11642;SDS011;5877;50.930;6.918;2022-10-16T06:18:09;3.30;;;1.17;;
11642;SDS011;5877;50.930;6.918;2022-10-16T06:20:36;1.47;;;1.03;;
11642;SDS011;5877;50.930;6.918;2022-10-16T06:23:04;1.47;;;1.00;;
11642;SDS011;5877;50.930;6.918;2022-10-16T06:25:31;1.30;;;1.20;;
11642;SDS011;5877;50.930;6.918;2022-10-16T06:27:57;2.90;;;1.20;;
11642;SDS011;5877;50.930;6.918;2022-10-16T06:30:24;3.73;;;1.30;;
11642;SDS011;5877;50.930;6.918;2022-10-16T06:32:51;2.50;;;1.13;;
11642;SDS011;5877;50.930;6.918;2022-10-16T06:35:18;1.00;;;0.90;;
11642;SDS011;5877;50.930;6.918;2022-10-16T06:37:44;1.93;;;1.30;;
11642;SDS011;5877;50.930;6.918;2022-10-16T06:40:11;1.37;;;1.20;;
11642;SDS011;5877;50.930;6.918;2022-10-16T06:42:37;2.07;;;1.07;;
11642;SDS011;5877;50.930;6.918;2022-10-16T06:45:04;1.20;;;1.10;;
11642;SDS011;5877;50.930;6.918;2022-10-16T06:47:34;3.00;;;1.30;;
11642;SDS011;5877;50.930;6.918;2022-10-16T06:50:01;0.80;;;0.80;;
11642;SDS011;5877;50.930;6.918;2022-10-16T06:52:30;1.83;;;0.90;;
11642;SDS011;5877;50.930;6.918;2022-10-16T06:54:56;1.27;;;0.90;;
11642;SDS011;5877;50.930;6.918;2022-10-16T06:57:23;2.03;;;1.10;;
11642;SDS011;5877;50.930;6.918;2022-10-16T06:59:49;1.60;;;1.23;;
11642;SDS011;5877;50.930;6.918;2022-10-16T07:02:20;2.50;;;0.90;;
11642;SDS011;5877;50.930;6.918;2022-10-16T07:04:47;2.43;;;0.93;;
11642;SDS011;5877;50.930;6.918;2022-10-16T07:07:13;1.33;;;1.00;;
11642;SDS011;5877;50.930;6.918;2022-10-16T07:09:40;2.17;;;1.00;;
11642;SDS011;5877;50.930;6.918;2022-10-16T07:12:07;3.13;;;1.00;;
11642;SDS011;5877;50.930;6.918;2022-10-16T07:14:33;2.00;;;1.20;;
11642;SDS011;5877;50.930;6.918;2022-10-16T07:17:00;1.93;;;1.13;;
11642;SDS011;5877;50.930;6.918;2022-10-16T07:19:26;2.87;;;1.00;;
11642;SDS011;5877;50.930;6.918;2022-10-16T07:21:58;3.13;;;0.97;;
11642;SDS011;5877;50.930;6.918;2022-10-16T07:24:25;3.10;;;1.00;;
11642;SDS011;5877;50.930;6.918;2022-10-16T07:26:52;1.43;;;1.00;;
11642;SDS011;5877;50.930;6.918;2022-10-16T07:29:21;3.27;;;1.20;;
11642;SDS011;5877;50.930;6.918;2022-10-16T07:31:48;2.13;;;1.10;;
11642;SDS011;5877;50.930;6.918;2022-10-16T07:34:16;2.30;;;0.90;;
11642;SDS011;5877;50.930;6.918;2022-10-16T07:36:44;3.13;;;0.90;;
11642;SDS011;5877;50.930;6.918;2022-10-16T07:39:14;2.30;;;1.10;;
11642;SDS011;5877;50.930;6.918;2022-10-16T07:41:40;1.33;;;1.00;;
11642;SDS011;5877;50.930;6.918;2022-10-16T07:44:07;1.30;;;1.00;;
11642;SDS011;5877;50.930;6.918;2022-10-16T07:46:35;1.47;;;1.17;;
11642;SDS011;5877;50.930;6.918;2022-10-16T07:49:02;1.10;;;1.00;;
11642;SDS011;5877;50.930;6.918;2022-10-16T07:51:29;3.23;;;1.30;;
11642;SDS011;5877;50.930;6.918;2022-10-16T07:53:56;2.17;;;1.00;;
11642;SDS011;5877;50.930;6.918;2022-10-16T07:56:23;1.10;;;1.00;;
11642;SDS011;5877;50.930;6.918;2022-10-16T07:58:50;1.93;;;1.00;;
11642;SDS011;5877;50.930;6.918;2022-10-16T08:01:17;2.63;;;1.17;;
11642;SDS011;5877;50.930;6.918;2022-10-16T08:03:45;1.53;;;0.87;;
11642;SDS011;5877;50.930;6.918;2022-10-16T08:06:16;1.80;;;0.80;;
11642;SDS011;5877;50.930;6.918;2022-10-16T08:08:49;1.60;;;1.07;;
11642;SDS011;5877;50.930;6.918;2022-10-16T08:11:15;4.03;;;1.13;;
11642;SDS011;5877;50.930;6.918;2022-10-16T08:13:42;1.43;;;0.97;;
11642;SDS011;5877;50.930;6.918;2022-10-16T08:16:09;1.00;;;0.73;;
11642;SDS011;5877;50.930;6.918;2022-10-16T08:18:36;2.70;;;0.83;;
11642;SDS011;5877;50.930;6.918;2022-10-16T08:21:05;1.23;;;0.83;;
11642;SDS011;5877;50.930;6.918;2022-10-16T08:23:32;1.77;;;0.87;;
11642;SDS011;5877;50.930;6.918;2022-10-16T08:26:06;2.30;;;1.00;;
11642;SDS011;5877;50.930;6.918;2022-10-16T08:28:34;1.43;;;0.60;;
11642;SDS011;5877;50.930;6.918;2022-10-16T08:31:06;1.27;;;0.73;;
11642;SDS011;5877;50.930;6.918;2022-10-16T08:33:33;2.40;;;0.60;;
11642;SDS011;5877;50.930;6.918;2022-10-16T08:36:02;1.00;;;0.63;;
11642;SDS011;5877;50.930;6.918;2022-10-16T08:38:29;1.20;;;0.60;;
11642;SDS011;5877;50.930;6.918;2022-10-16T08:49:47;2.00;;;0.80;;
11642;SDS011;5877;50.930;6.918;2022-10-16T08:52:35;0.97;;;0.80;;
11642;SDS011;5877;50.930;6.918;2022-10-16T08:56:08;3.03;;;0.80;;
11642;SDS011;5877;50.930;6.918;2022-10-16T08:58:22;1.67;;;0.60;;
11642;SDS011;5877;50.930;6.918;2022-10-16T09:00:56;1.77;;;0.60;;
11642;SDS011;5877;50.930;6.918;2022-10-16T09:03:40;2.37;;;0.70;;
11642;SDS011;5877;50.930;6.918;2022-10-16T09:06:41;1.60;;;1.10;;
11642;SDS011;5877;50.930;6.918;2022-10-16T09:12:11;1.60;;;0.60;;
11642;SDS011;5877;50.930;6.918;2022-10-16T09:14:52;0.87;;;0.70;;
11642;SDS011;5877;50.930;6.918;2022-10-16T09:17:49;1.77;;;1.00;;
11642;SDS011;5877;50.930;6.918;2022-10-16T09:20:53;0.53;;;0.53;;
11642;SDS011;5877;50.930;6.918;2022-10-16T09:23:29;1.47;;;0.73;;
11642;SDS011;5877;50.930;6.918;2022-10-16T09:25:57;0.80;;;0.70;;
11642;SDS011;5877;50.930;6.918;2022-10-16T09:28:25;1.27;;;0.50;;
11642;SDS011;5877;50.930;6.918;2022-10-16T09:30:52;1.40;;;0.87;;
11642;SDS011;5877;50.930;6.918;2022-10-16T09:33:20;1.27;;;0.57;;
11642;SDS011;5877;50.930;6.918;2022-10-16T09:35:53;3.27;;;0.90;;
11642;SDS011;5877;50.930;6.918;2022-10-16T09:38:32;1.63;;;0.67;;
11642;SDS011;5877;50.930;6.918;2022-10-16T09:41:18;1.83;;;0.70;;
11642;SDS011;5877;50.930;6.918;2022-10-16T09:44:00;1.50;;;0.53;;
11642;SDS011;5877;50.930;6.918;2022-10-16T09:46:32;1.20;;;0.50;;
11642;SDS011;5877;50.930;6.918;2022-10-16T09:49:03;1.20;;;0.63;;
11642;SDS011;5877;50.930;6.918;2022-10-16T09:51:32;1.83;;;0.70;;
11642;SDS011;5877;50.930;6.918;2022-10-16T09:54:10;3.57;;;0.63;;
11642;SDS011;5877;50.930;6.918;2022-10-16T09:56:40;1.47;;;0.60;;
11642;SDS011;5877;50.930;6.918;2022-10-16T09:59:21;2.23;;;0.73;;
11642;SDS011;5877;50.930;6.918;2022-10-16T10:01:53;0.87;;;0.50;;
11642;SDS011;5877;50.930;6.918;2022-10-16T10:04:24;1.03;;;0.50;;
11642;SDS011;5877;50.930;6.918;2022-10-16T10:06:52;1.67;;;0.80;;
11642;SDS011;5877;50.930;6.918;2022-10-16T10:09:32;1.80;;;0.50;;
11642;SDS011;5877;50.930;6.918;2022-10-16T10:12:05;3.50;;;0.60;;
11642;SDS011;5877;50.930;6.918;2022-10-16T10:14:43;2.77;;;0.90;;
11642;SDS011;5877;50.930;6.918;2022-10-16T10:17:17;1.30;;;0.60;;
11642;SDS011;5877;50.930;6.918;2022-10-16T10:19:50;1.40;;;0.67;;
11642;SDS011;5877;50.930;6.918;2022-10-16T10:22:41;2.53;;;0.50;;
11642;SDS011;5877;50.930;6.918;2022-10-16T10:40:54;1.73;;;0.70;;
11642;SDS011;5877;50.930;6.918;2022-10-16T10:46:08;3.40;;;1.33;;
11642;SDS011;5877;50.930;6.918;2022-10-16T10:59:32;0.97;;;0.53;;
11642;SDS011;5877;50.930;6.918;2022-10-16T11:07:40;1.70;;;0.60;;
11642;SDS011;5877;50.930;6.918;2022-10-16T11:12:52;0.97;;;0.50;;
11642;SDS011;5877;50.930;6.918;2022-10-16T11:15:31;1.13;;;0.43;;
11642;SDS011;5877;50.930;6.918;2022-10-16T11:18:05;1.70;;;0.80;;
11642;SDS011;5877;50.930;6.918;2022-10-16T11:20:40;1.07;;;0.60;;
11642;SDS011;5877;50.930;6.918;2022-10-16T11:23:20;3.17;;;0.93;;
11642;SDS011;5877;50.930;6.918;2022-10-16T11:25:49;0.80;;;0.40;;
11642;SDS011;5877;50.930;6.918;2022-10-16T11:28:23;1.20;;;0.60;;
11642;SDS011;5877;50.930;6.918;2022-10-16T11:34:04;3.30;;;0.73;;
11642;SDS011;5877;50.930;6.918;2022-10-16T11:39:28;1.53;;;0.53;;
11642;SDS011;5877;50.930;6.918;2022-10-16T11:42:18;2.30;;;0.63;;
11642;SDS011;5877;50.930;6.918;2022-10-16T11:44:57;2.30;;;0.50;;
11642;SDS011;5877;50.930;6.918;2022-10-16T11:47:44;1.67;;;0.90;;
11642;SDS011;5877;50.930;6.918;2022-10-16T11:50:45;1.60;;;0.50;;
11642;SDS011;5877;50.930;6.918;2022-10-16T11:56:03;1.60;;;0.53;;
11642;SDS011;5877;50.930;6.918;2022-10-16T12:01:17;1.03;;;0.40;;
11642;SDS011;5877;50.930;6.918;2022-10-16T12:06:53;1.63;;;0.40;;
11642;SDS011;5877;50.930;6.918;2022-10-16T12:09:27;1.30;;;0.57;;
11642;SDS011;5877;50.930;6.918;2022-10-16T12:11:56;1.40;;;0.50;;
11642;SDS011;5877;50.930;6.918;2022-10-16T12:16:54;1.77;;;0.70;;
11642;SDS011;5877;50.930;6.918;2022-10-16T12:19:31;1.30;;;0.43;;
11642;SDS011;5877;50.930;6.918;2022-10-16T12:21:59;2.80;;;0.60;;
11642;SDS011;5877;50.930;6.918;2022-10-16T12:24:32;2.00;;;0.50;;
11642;SDS011;5877;50.930;6.918;2022-10-16T12:27:02;1.43;;;0.50;;
11642;SDS011;5877;50.930;6.918;2022-10-16T12:29:40;1.73;;;0.50;;
11642;SDS011;5877;50.930;6.918;2022-10-16T12:35:20;1.57;;;0.70;;
11642;SDS011;5877;50.930;6.918;2022-10-16T12:37:49;1.30;;;0.57;;
11642;SDS011;5877;50.930;6.918;2022-10-16T12:42:53;2.57;;;1.10;;
11642;SDS011;5877;50.930;6.918;2022-10-16T12:47:52;0.60;;;0.30;;
11642;SDS011;5877;50.930;6.918;2022-10-16T12:52:50;0.80;;;0.43;;
11642;SDS011;5877;50.930;6.918;2022-10-16T12:55:17;0.83;;;0.50;;
11642;SDS011;5877;50.930;6.918;2022-10-16T13:07:05;1.60;;;0.60;;
11642;SDS011;5877;50.930;6.918;2022-10-16T13:09:46;2.60;;;0.50;;
11642;SDS011;5877;50.930;6.918;2022-10-16T13:26:41;1.13;;;0.57;;
11642;SDS011;5877;50.930;6.918;2022-10-16T13:29:15;1.47;;;0.53;;
11642;SDS011;5877;50.930;6.918;2022-10-16T13:31:42;1.17;;;0.40;;
11642;SDS011;5877;50.930;6.918;2022-10-16T13:34:17;3.23;;;0.60;;
11642;SDS011;5877;50.930;6.918;2022-10-16T13:36:50;1.40;;;0.50;;
11642;SDS011;5877;50.930;6.918;2022-10-16T13:44:39;2.10;;;0.40;;
11642;SDS011;5877;50.930;6.918;2022-10-16T13:47:18;0.70;;;0.50;;
11642;SDS011;5877;50.930;6.918;2022-10-16T13:49:58;0.53;;;0.50;;
11642;SDS011;5877;50.930;6.918;2022-10-16T13:52:30;1.47;;;0.40;;
11642;SDS011;5877;50.930;6.918;2022-10-16T13:54:57;2.73;;;0.50;;
11642;SDS011;5877;50.930;6.918;2022-10-16T13:57:27;1.43;;;0.60;;
11642;SDS011;5877;50.930;6.918;2022-10-16T13:59:54;0.77;;;0.33;;
11642;SDS011;5877;50.930;6.918;2022-10-16T14:02:34;1.17;;;0.50;;
11642;SDS011;5877;50.930;6.918;2022-10-16T14:05:07;1.77;;;0.50;;
11642;SDS011;5877;50.930;6.918;2022-10-16T14:07:36;2.13;;;0.50;;
11642;SDS011;5877;50.930;6.918;2022-10-16T14:10:05;1.37;;;0.50;;
11642;SDS011;5877;50.930;6.918;2022-10-16T14:12:44;1.33;;;0.30;;
11642;SDS011;5877;50.930;6.918;2022-10-16T14:15:17;0.80;;;0.40;;
11642;SDS011;5877;50.930;6.918;2022-10-16T14:17:45;0.80;;;0.37;;
11642;SDS011;5877;50.930;6.918;2022-10-16T14:20:16;3.07;;;0.60;;
11642;SDS011;5877;50.930;6.918;2022-10-16T14:22:43;1.63;;;0.43;;
11642;SDS011;5877;50.930;6.918;2022-10-16T14:27:45;1.40;;;0.50;;
11642;SDS011;5877;50.930;6.918;2022-10-16T14:30:24;1.87;;;0.70;;
11642;SDS011;5877;50.930;6.918;2022-10-16T14:32:55;1.23;;;0.47;;
11642;SDS011;5877;50.930;6.918;2022-10-16T14:35:29;1.47;;;0.60;;
11642;SDS011;5877;50.930;6.918;2022-10-16T14:37:58;3.07;;;0.60;;
11642;SDS011;5877;50.930;6.918;2022-10-16T14:40:28;0.97;;;0.60;;
11642;SDS011;5877;50.930;6.918;2022-10-16T14:42:57;1.57;;;0.60;;
11642;SDS011;5877;50.930;6.918;2022-10-16T14:45:30;2.17;;;0.67;;
11642;SDS011;5877;50.930;6.918;2022-10-16T14:48:00;1.20;;;0.50;;
11642;SDS011;5877;50.930;6.918;2022-10-16T14:50:31;2.20;;;0.70;;
11642;SDS011;5877;50.930;6.918;2022-10-16T14:52:58;1.10;;;0.60;;
11642;SDS011;5877;50.930;6.918;2022-10-16T14:55:25;1.60;;;0.60;;
11642;SDS011;5877;50.930;6.918;2022-10-16T14:57:52;0.90;;;0.70;;
11642;SDS011;5877;50.930;6.918;2022-10-16T15:00:25;0.73;;;0.53;;
11642;SDS011;5877;50.930;6.918;2022-10-16T15:02:52;0.90;;;0.60;;
11642;SDS011;5877;50.930;6.918;2022-10-16T15:05:20;0.67;;;0.30;;
11642;SDS011;5877;50.930;6.918;2022-10-16T15:07:48;0.90;;;0.50;;
11642;SDS011;5877;50.930;6.918;2022-10-16T15:10:16;1.57;;;0.50;;
11642;SDS011;5877;50.930;6.918;2022-10-16T15:12:43;1.27;;;0.50;;
11642;SDS011;5877;50.930;6.918;2022-10-16T15:15:32;1.33;;;0.73;;
11642;SDS011;5877;50.930;6.918;2022-10-16T15:18:00;1.00;;;0.70;;
11642;SDS011;5877;50.930;6.918;2022-10-16T15:20:35;0.90;;;0.70;;
11642;SDS011;5877;50.930;6.918;2022-10-16T15:23:09;1.87;;;0.57;;
11642;SDS011;5877;50.930;6.918;2022-10-16T15:28:34;2.37;;;0.70;;
11642;SDS011;5877;50.930;6.918;2022-10-16T15:31:02;2.10;;;0.50;;
11642;SDS011;5877;50.930;6.918;2022-10-16T15:33:30;2.03;;;0.70;;
11642;SDS011;5877;50.930;6.918;2022-10-16T15:36:05;0.60;;;0.60;;
11642;SDS011;5877;50.930;6.918;2022-10-16T15:38:32;1.70;;;0.70;;
11642;SDS011;5877;50.930;6.918;2022-10-16T15:40:59;3.70;;;0.90;;
11642;SDS011;5877;50.930;6.918;2022-10-16T15:43:25;1.93;;;0.60;;
11642;SDS011;5877;50.930;6.918;2022-10-16T15:46:14;2.03;;;1.20;;
11642;SDS011;5877;50.930;6.918;2022-10-16T15:48:40;1.10;;;0.93;;
11642;SDS011;5877;50.930;6.918;2022-10-16T15:51:07;2.13;;;1.20;;
11642;SDS011;5877;50.930;6.918;2022-10-16T15:53:34;2.63;;;1.10;;
11642;SDS011;5877;50.930;6.918;2022-10-16T15:56:02;1.10;;;0.70;;
11642;SDS011;5877;50.930;6.918;2022-10-16T15:58:30;0.80;;;0.50;;
11642;SDS011;5877;50.930;6.918;2022-10-16T16:00:58;1.80;;;0.87;;
11642;SDS011;5877;50.930;6.918;2022-10-16T16:03:27;1.10;;;0.60;;
11642;SDS011;5877;50.930;6.918;2022-10-16T16:05:54;0.63;;;0.50;;
11642;SDS011;5877;50.930;6.918;2022-10-16T16:08:21;1.23;;;0.80;;
11642;SDS011;5877;50.930;6.918;2022-10-16T16:11:04;2.87;;;0.90;;
11642;SDS011;5877;50.930;6.918;2022-10-16T16:13:36;1.87;;;0.80;;
11642;SDS011;5877;50.930;6.918;2022-10-16T16:16:08;0.60;;;0.50;;
11642;SDS011;5877;50.930;6.918;2022-10-16T16:18:39;1.13;;;0.63;;
11642;SDS011;5877;50.930;6.918;2022-10-16T16:21:05;2.87;;;0.67;;
11642;SDS011;5877;50.930;6.918;2022-10-16T16:23:33;1.43;;;0.70;;
11642;SDS011;5877;50.930;6.918;2022-10-16T16:26:11;1.37;;;0.80;;
11642;SDS011;5877;50.930;6.918;2022-10-16T16:28:42;3.50;;;1.20;;
11642;SDS011;5877;50.930;6.918;2022-10-16T16:31:09;2.40;;;1.10;;
11642;SDS011;5877;50.930;6.918;2022-10-16T16:33:36;1.80;;;1.10;;
11642;SDS011;5877;50.930;6.918;2022-10-16T16:36:03;1.20;;;0.97;;
11642;SDS011;5877;50.930;6.918;2022-10-16T16:38:38;2.40;;;1.30;;
11642;SDS011;5877;50.930;6.918;2022-10-16T16:41:14;1.73;;;0.97;;
11642;SDS011;5877;50.930;6.918;2022-10-16T16:43:44;0.90;;;0.80;;
11642;SDS011;5877;50.930;6.918;2022-10-16T16:46:11;2.30;;;0.90;;
11642;SDS011;5877;50.930;6.918;2022-10-16T16:48:38;1.70;;;1.10;;
11642;SDS011;5877;50.930;6.918;2022-10-16T16:51:05;1.77;;;1.13;;
11642;SDS011;5877;50.930;6.918;2022-10-16T16:53:34;2.50;;;0.90;;
11642;SDS011;5877;50.930;6.918;2022-10-16T16:56:02;2.27;;;1.47;;
11642;SDS011;5877;50.930;6.918;2022-10-16T16:58:30;1.33;;;1.07;;
11642;SDS011;5877;50.930;6.918;2022-10-16T17:00:58;1.20;;;1.00;;
11642;SDS011;5877;50.930;6.918;2022-10-16T17:03:45;1.73;;;1.10;;
11642;SDS011;5877;50.930;6.918;2022-10-16T17:06:13;1.80;;;1.23;;
11642;SDS011;5877;50.930;6.918;2022-10-16T17:08:40;3.20;;;0.80;;
11642;SDS011;5877;50.930;6.918;2022-10-16T17:11:12;1.30;;;1.00;;
11642;SDS011;5877;50.930;6.918;2022-10-16T17:13:41;2.03;;;0.80;;
11642;SDS011;5877;50.930;6.918;2022-10-16T17:16:08;1.63;;;1.20;;
11642;SDS011;5877;50.930;6.918;2022-10-16T17:18:35;3.50;;;1.03;;
11642;SDS011;5877;50.930;6.918;2022-10-16T17:21:03;3.13;;;1.30;;